Back to top

Greybull, WY weather

South Big Horn County Airport, Greybull, WY: 11/13/2019 17:53
Visibility10 statute mileslots of clouds
View 7-Day Forecast
Area Summary
Sky/CloudsBroken at 7000ft, Solid Overcast at 11000ft
Weather [last 24 hours]None
Pressure30.11 in.Hg (1020 hPa)
Dew Point30.9 °F (-0.6 °C)
Relative Humidity75.6 %
Temperature37.9 °F (3.3 °C)red thermometer
Reading TimeMinimum to Maximum Temperature
6-hr ending 11/13@16:5339.9 °F to 45 °F (4.4 °C to 7.2 °C)
6-hr ending 11/13@10:5328.9 °F to 39.9 °F (-1.7 °C to 4.4 °C)
6-hr ending 11/13@04:5328 °F to 32 °F (-2.2 °C to 0 °C)
6-hr ending 11/12@22:5328 °F to 30.9 °F (-2.2 °C to -0.6 °C)
24-hr ending 11/12@23:53-2 °F to 32 °F (-18.9 °C to 0 °C)
Wind0 MPH (0 KT) green arrow pointing at 0 degrees
Wind FromNorth (000 Degrees)
Twilight Begins06:34Sunshine Yesterday
Sunrise07:05N/A
Sunset16:48
Twilight Ends17:19
METARKGEY 140053Z AUTO 00000KT 10SM BKN070 OVC110 03/M01 A3011 RMK AO2 SLP224 T00331006
Tags: